Whiting Field Naval Air Station North Airport
KNSE : now visible

Airfield :











YOU CAN JOIN US ON...

 
LOGIN :

Register | Disclaimer

   EN    FR    IT 

 









Legend :    VFR   Marginal VFR   IFR   Intensive IFR   Very Intensive IFR
Visi :
Ceiling :
>= 8 km
>= 3000ft
5 to 8 km
1000 to 3000 ft
1500m to 5 km
500 to 1000 ft
800 to 1500m
200 to 500 ft
< 800m
< 200 ft
Symbols :   Thunderstorms  Fog  Heavy snow  Heavy precipitations  Wind > 20 kt







- Airport Elevation : 199 ft


KNSE - Whiting Field Naval Air Station North

CURRENT METAR :
  • 200956Z AUTO 08006KT 10SM CLR 21/15 A3012 RMK AO2 SLP184 T02060150 $

EXPIRED METARs :
  • 200856Z AUTO 08007KT 10SM CLR 21/14 A3011 RMK AO2 SLP180 T02110144 53004 $
  • 200756Z AUTO 08005KT 10SM CLR 22/13 A3010 RMK AO2 SLP177 T02170133 $

TAF TAF KNSE
Valid from the 20 at 07:00 until the 21 at 07:00 UTC


2007/2107 09007KT 9999 FEW080 QNH3005INS
FM201500 10009G18KT 9999 FEW050 QNH3011INS
BECMG 2021/2023 VRB06KT 9999 FEW040 QNH3005INS
BECMG 2103/2105 06006KT 9999 SCT030 SCT080 QNH3008INS AUTOMATED SENSOR METWATCH 2007 TIL 2011 T21/2012Z T30/2019Z FN00198
No reported NOTAMs for that airfield.



MET'MAP, your aeronautical weather chart ! - Copyright ORBIFLY December 2007 - Disclaimer

ORBIFLY MET'MAP TEAM :

Programming & Development : Alexandra Zaïnal
Concept & Development : Baudouin d'Aumeries
Co-Development & Prog : Marc-Olivier Méhu
Technical & hardware support : Manuel Goepfert

Contact : metmap@orbifly.com




SOURCES & CREDITS :

   NOAA       Earth
Advisory